createdAt,value
2017-06-30T00:00:17.741Z,0
2017-06-30T00:01:27.990Z,0
2017-06-30T00:02:37.934Z,0
2017-06-30T00:03:48.448Z,0
2017-06-30T00:04:58.702Z,0
2017-06-30T00:06:08.653Z,0
2017-06-30T00:07:18.914Z,0
2017-06-30T00:08:29.192Z,0
2017-06-30T00:09:39.748Z,0
2017-06-30T00:10:50.012Z,0
2017-06-30T00:12:00.268Z,0
2017-06-30T00:13:10.207Z,0
2017-06-30T00:14:19.841Z,0
2017-06-30T00:15:29.714Z,0
2017-06-30T00:16:39.661Z,0
2017-06-30T00:17:49.921Z,0
2017-06-30T00:18:59.871Z,0
2017-06-30T00:20:09.819Z,0
2017-06-30T00:21:20.385Z,0
2017-06-30T00:22:30.329Z,0
2017-06-30T00:23:40.310Z,0
2017-06-30T00:24:50.275Z,0
2017-06-30T00:26:00.231Z,0
2017-06-30T00:27:10.745Z,0
2017-06-30T00:28:21.004Z,0
2017-06-30T00:29:31.267Z,0
2017-06-30T00:30:41.209Z,0
2017-06-30T00:31:51.470Z,0
2017-06-30T00:33:02.030Z,0
2017-06-30T00:34:11.675Z,0
2017-06-30T00:35:21.931Z,0
2017-06-30T00:36:32.222Z,0
2017-06-30T00:37:41.859Z,0
2017-06-30T00:38:52.103Z,0
2017-06-30T00:40:02.361Z,0
2017-06-30T00:41:11.998Z,0
2017-06-30T00:42:22.269Z,0
2017-06-30T00:43:32.209Z,0
2017-06-30T00:44:42.779Z,0
2017-06-30T00:45:53.036Z,0
2017-06-30T00:47:03.301Z,0
2017-06-30T00:48:13.570Z,0
2017-06-30T00:49:23.829Z,0
2017-06-30T00:50:34.076Z,0
2017-06-30T00:51:44.041Z,0
2017-06-30T00:52:54.293Z,0
2017-06-30T00:54:04.540Z,0
2017-06-30T00:55:14.191Z,0
2017-06-30T00:56:24.458Z,0
2017-06-30T00:57:34.713Z,0
2017-06-30T00:58:44.664Z,0
2017-06-30T00:59:54.334Z,0
2017-06-30T01:01:04.595Z,0
2017-06-30T01:02:15.093Z,0
2017-06-30T01:03:25.364Z,0
2017-06-30T01:04:35.622Z,0
2017-06-30T01:05:45.883Z,0
2017-06-30T01:06:56.144Z,0
2017-06-30T01:08:06.677Z,0
2017-06-30T01:09:16.941Z,0
2017-06-30T01:10:26.883Z,0
2017-06-30T01:11:36.832Z,0
2017-06-30T01:12:47.081Z,0
2017-06-30T01:13:57.654Z,0
2017-06-30T01:15:07.914Z,0
2017-06-30T01:16:17.877Z,0
2017-06-30T01:17:28.128Z,0
2017-06-30T01:18:38.381Z,0
2017-06-30T01:19:48.941Z,0
2017-06-30T01:20:59.210Z,0
2017-06-30T01:22:09.175Z,0
2017-06-30T01:23:19.134Z,0
2017-06-30T01:24:29.395Z,0
2017-06-30T01:25:39.921Z,0
2017-06-30T01:26:50.193Z,0
2017-06-30T01:28:00.129Z,0
2017-06-30T01:29:10.381Z,0
2017-06-30T01:30:21.230Z,0
2017-06-30T01:31:31.476Z,0
2017-06-30T01:32:41.730Z,0
2017-06-30T01:33:51.676Z,0
2017-06-30T01:35:01.934Z,0
2017-06-30T01:36:12.194Z,0
2017-06-30T01:37:22.747Z,0
2017-06-30T01:38:32.688Z,0
2017-06-30T01:39:42.641Z,0
2017-06-30T01:40:52.911Z,0
2017-06-30T01:42:03.168Z,0
2017-06-30T01:43:13.728Z,0
2017-06-30T01:44:23.681Z,0
2017-06-30T01:45:33.937Z,0
2017-06-30T01:46:44.189Z,0
2017-06-30T01:47:54.446Z,0
2017-06-30T01:49:05.002Z,0
2017-06-30T01:50:15.264Z,0
2017-06-30T01:51:25.576Z,0
2017-06-30T01:52:35.212Z,0
2017-06-30T01:53:45.470Z,0
2017-06-30T01:54:55.994Z,0
2017-06-30T01:56:06.248Z,0
2017-06-30T01:57:16.508Z,0
2017-06-30T01:58:26.763Z,0
2017-06-30T01:59:36.710Z,0
2017-06-30T02:00:46.904Z,0
2017-06-30T02:01:56.851Z,0
2017-06-30T02:03:07.114Z,0
2017-06-30T02:04:17.370Z,0
2017-06-30T02:05:27.647Z,0
2017-06-30T02:06:37.595Z,0
2017-06-30T02:07:47.859Z,0
2017-06-30T02:08:58.110Z,0
2017-06-30T02:10:08.383Z,0
2017-06-30T02:11:18.635Z,0
2017-06-30T02:12:28.882Z,0
2017-06-30T02:13:38.817Z,0
2017-06-30T02:14:49.069Z,4
2017-06-30T02:15:59.032Z,4
2017-06-30T02:17:09.292Z,4
2017-06-30T02:18:19.854Z,4
2017-06-30T02:19:29.852Z,8
2017-06-30T02:20:40.098Z,4
2017-06-30T02:21:50.366Z,8
2017-06-30T02:23:00.635Z,8
2017-06-30T02:24:11.159Z,4
2017-06-30T02:25:21.433Z,4
2017-06-30T02:26:31.705Z,12
2017-06-30T02:27:41.638Z,12
2017-06-30T02:28:51.889Z,16
2017-06-30T02:30:02.394Z,24
2017-06-30T02:31:12.346Z,20
2017-06-30T02:32:21.993Z,28
2017-06-30T02:33:31.627Z,36
2017-06-30T02:34:41.958Z,36
2017-06-30T02:35:52.229Z,24
2017-06-30T02:37:02.488Z,24
2017-06-30T02:38:12.731Z,32
2017-06-30T02:39:22.984Z,36
2017-06-30T02:40:33.249Z,44
2017-06-30T02:41:43.761Z,44
2017-06-30T02:42:54.218Z,40
2017-06-30T02:44:04.485Z,40
2017-06-30T02:45:14.453Z,44
2017-06-30T02:46:24.715Z,56
2017-06-30T02:47:35.260Z,64
2017-06-30T02:48:45.209Z,64
2017-06-30T02:49:55.471Z,56
2017-06-30T02:51:05.714Z,76
2017-06-30T02:52:15.352Z,84
2017-06-30T02:53:25.851Z,72
2017-06-30T02:54:35.797Z,104
2017-06-30T02:55:46.052Z,104
2017-06-30T02:56:56.301Z,148
2017-06-30T02:58:06.247Z,156
2017-06-30T02:59:16.431Z,108
2017-06-30T03:00:26.696Z,124
2017-06-30T03:01:36.961Z,176
2017-06-30T03:02:47.226Z,200
2017-06-30T03:03:57.470Z,160
2017-06-30T03:05:07.977Z,156
2017-06-30T03:06:18.228Z,180
2017-06-30T03:07:28.488Z,184
2017-06-30T03:08:38.806Z,228
2017-06-30T03:09:49.057Z,208
2017-06-30T03:10:59.564Z,216
2017-06-30T03:12:09.816Z,232
2017-06-30T03:13:20.079Z,260
2017-06-30T03:14:30.029Z,240
2017-06-30T03:15:40.295Z,224
2017-06-30T03:16:50.849Z,280
2017-06-30T03:18:01.119Z,224
2017-06-30T03:19:11.377Z,276
2017-06-30T03:20:21.324Z,308
2017-06-30T03:21:31.592Z,304
2017-06-30T03:22:42.093Z,332
2017-06-30T03:23:52.360Z,332
2017-06-30T03:25:02.621Z,416
2017-06-30T03:26:12.567Z,488
2017-06-30T03:27:22.520Z,496
2017-06-30T03:28:33.084Z,480
2017-06-30T03:29:43.032Z,528
2017-06-30T03:30:53.287Z,612
2017-06-30T03:32:03.546Z,600
2017-06-30T03:33:13.489Z,580
2017-06-30T03:34:24.044Z,588
2017-06-30T03:35:33.991Z,704
2017-06-30T03:36:43.934Z,708
2017-06-30T03:37:54.193Z,792
2017-06-30T03:39:04.456Z,780
2017-06-30T03:40:15.008Z,964
2017-06-30T03:41:24.961Z,1116
2017-06-30T03:42:34.914Z,1276
2017-06-30T03:43:45.182Z,1052
2017-06-30T03:44:55.429Z,1232
2017-06-30T03:46:05.979Z,1132
2017-06-30T03:47:15.925Z,1156
2017-06-30T03:48:25.878Z,1368
2017-06-30T03:49:36.139Z,1376
2017-06-30T03:50:46.078Z,1416
2017-06-30T03:51:56.628Z,1636
2017-06-30T03:53:06.889Z,1380
2017-06-30T03:54:17.139Z,1332
2017-06-30T03:55:27.400Z,1144
2017-06-30T03:56:37.665Z,1456
2017-06-30T03:57:47.869Z,1408
2017-06-30T03:58:57.812Z,1588
2017-06-30T04:00:07.749Z,2000
2017-06-30T04:01:18.001Z,1784
2017-06-30T04:02:27.962Z,1968
2017-06-30T04:03:38.544Z,1836
2017-06-30T04:04:48.496Z,2028
2017-06-30T04:05:58.753Z,1768
2017-06-30T04:07:08.706Z,1844
2017-06-30T04:08:18.959Z,2084
2017-06-30T04:09:29.162Z,1756
2017-06-30T04:10:39.419Z,2316
2017-06-30T04:11:49.376Z,1960
2017-06-30T04:12:59.653Z,2140
2017-06-30T04:14:09.599Z,1568
2017-06-30T04:15:20.102Z,1896
2017-06-30T04:16:30.057Z,1952
2017-06-30T04:17:40.302Z,1860
2017-06-30T04:18:50.244Z,1692
2017-06-30T04:20:00.496Z,2024
2017-06-30T04:21:11.062Z,1724
2017-06-30T04:22:21.308Z,1796
2017-06-30T04:23:31.256Z,1828
2017-06-30T04:24:41.516Z,1868
2017-06-30T04:25:51.768Z,1792
2017-06-30T04:27:02.322Z,1476
2017-06-30T04:28:12.572Z,1448
2017-06-30T04:29:22.511Z,1632
2017-06-30T04:30:32.768Z,1408
2017-06-30T04:31:42.739Z,1500
2017-06-30T04:32:52.929Z,1676
2017-06-30T04:34:03.188Z,1540
2017-06-30T04:35:13.455Z,1464
2017-06-30T04:36:23.711Z,1984
2017-06-30T04:37:33.952Z,1548
2017-06-30T04:38:44.144Z,1668
2017-06-30T04:39:54.418Z,1360
2017-06-30T04:41:04.687Z,1276
2017-06-30T04:42:14.946Z,1236
2017-06-30T04:43:25.188Z,1264
2017-06-30T04:44:35.700Z,1292
2017-06-30T04:45:45.953Z,1420
2017-06-30T04:46:56.227Z,1660
2017-06-30T04:48:06.742Z,1904
2017-06-30T04:49:16.983Z,3024
2017-06-30T04:50:27.514Z,3016
2017-06-30T04:51:37.810Z,3304
2017-06-30T04:52:48.084Z,3672
2017-06-30T04:53:58.349Z,3668
2017-06-30T04:55:08.639Z,3536
2017-06-30T04:56:19.154Z,4484
2017-06-30T04:57:29.418Z,4300
2017-06-30T04:58:39.362Z,4580
2017-06-30T04:59:49.606Z,4640
2017-06-30T05:00:59.873Z,4632
2017-06-30T05:02:10.081Z,4976
2017-06-30T05:03:20.353Z,4516
2017-06-30T05:04:30.621Z,4400
2017-06-30T05:05:40.907Z,4000
2017-06-30T05:06:51.169Z,4908
2017-06-30T05:08:01.758Z,5028
2017-06-30T05:09:12.028Z,4812
2017-06-30T05:10:21.987Z,5384
2017-06-30T05:11:31.952Z,5196
2017-06-30T05:12:42.203Z,5364
2017-06-30T05:13:52.724Z,5184
2017-06-30T05:15:02.682Z,5392
2017-06-30T05:16:12.623Z,5304
2017-06-30T05:17:22.896Z,4832
2017-06-30T05:18:33.164Z,4468
2017-06-30T05:19:43.406Z,3880
2017-06-30T05:20:53.692Z,4392
2017-06-30T05:22:03.965Z,4512
2017-06-30T05:23:14.233Z,4516
2017-06-30T05:24:24.500Z,3592
2017-06-30T05:25:34.689Z,3980
2017-06-30T05:26:44.642Z,4464
2017-06-30T05:27:54.896Z,4000
2017-06-30T05:29:05.159Z,4308
2017-06-30T05:30:15.429Z,4280
2017-06-30T05:31:25.941Z,3920
2017-06-30T05:32:36.192Z,4356
2017-06-30T05:33:46.450Z,3688
2017-06-30T05:34:56.723Z,4332
2017-06-30T05:36:06.349Z,3900
2017-06-30T05:37:16.859Z,5060
2017-06-30T05:38:27.108Z,4928
2017-06-30T05:39:37.384Z,4148
2017-06-30T05:40:47.628Z,3816
2017-06-30T05:41:57.880Z,4188
2017-06-30T05:43:08.429Z,5132
2017-06-30T05:44:18.690Z,4540
2017-06-30T05:45:28.970Z,3700
2017-06-30T05:46:39.230Z,4584
2017-06-30T05:47:49.527Z,2988
2017-06-30T05:49:00.047Z,4300
2017-06-30T05:50:10.330Z,3496
2017-06-30T05:51:20.027Z,3516
2017-06-30T05:52:30.287Z,3000
2017-06-30T05:53:40.552Z,3764
2017-06-30T05:54:51.142Z,4040
2017-06-30T05:56:01.457Z,3696
2017-06-30T05:57:11.712Z,3684
2017-06-30T05:58:21.685Z,3636
2017-06-30T05:59:31.975Z,4204
2017-06-30T06:00:42.246Z,4196
2017-06-30T06:01:52.499Z,4364
2017-06-30T06:03:02.753Z,4440
2017-06-30T06:04:13.014Z,5548
2017-06-30T06:05:22.978Z,4568
2017-06-30T06:06:33.485Z,4540
2017-06-30T06:07:43.765Z,4328
2017-06-30T06:08:53.719Z,4428
2017-06-30T06:10:03.993Z,4732
2017-06-30T06:11:14.255Z,3312
2017-06-30T06:12:24.837Z,3076
2017-06-30T06:13:35.087Z,4120
2017-06-30T06:14:45.338Z,5224
2017-06-30T06:15:55.286Z,6784
2017-06-30T06:17:05.220Z,7936
2017-06-30T06:18:15.781Z,7200
2017-06-30T06:19:26.039Z,7816
2017-06-30T06:20:36.318Z,7260
2017-06-30T06:21:46.580Z,7560
2017-06-30T06:22:56.515Z,7064
2017-06-30T06:24:06.423Z,6052
2017-06-30T06:25:16.688Z,5596
2017-06-30T06:26:26.628Z,6432
2017-06-30T06:27:36.890Z,6060
2017-06-30T06:28:47.148Z,6748
2017-06-30T06:29:57.659Z,6952
2017-06-30T06:31:07.917Z,7656
2017-06-30T06:32:17.871Z,8192
2017-06-30T06:33:28.146Z,8472
2017-06-30T06:34:38.313Z,8236
2017-06-30T06:35:48.819Z,8128
2017-06-30T06:36:59.093Z,7472
2017-06-30T06:38:09.370Z,7016
2017-06-30T06:39:19.625Z,7180
2017-06-30T06:40:29.568Z,6924
2017-06-30T06:41:40.126Z,7384
2017-06-30T06:42:50.395Z,7472
2017-06-30T06:44:00.361Z,7496
2017-06-30T06:45:10.673Z,7436
2017-06-30T06:46:20.939Z,6764
2017-06-30T06:47:31.493Z,7660
2017-06-30T06:48:41.748Z,8592
2017-06-30T06:49:52.014Z,9240
2017-06-30T06:51:01.985Z,9772
2017-06-30T06:52:12.237Z,9620
2017-06-30T06:53:22.433Z,10272
2017-06-30T06:54:32.388Z,10748
2017-06-30T06:55:42.349Z,11144
2017-06-30T06:56:52.628Z,10220
2017-06-30T06:58:02.927Z,11188
2017-06-30T06:59:13.497Z,11140
2017-06-30T07:00:23.783Z,11228
2017-06-30T07:01:34.058Z,12008
2017-06-30T11:43:28.647Z,40256
2017-06-30T11:44:38.623Z,39584
2017-06-30T11:45:48.600Z,38688
2017-06-30T11:46:58.273Z,36064
2017-06-30T11:53:13.716Z,35136
2017-06-30T11:54:23.998Z,36640
2017-06-30T11:55:34.276Z,38624
2017-06-30T11:56:44.578Z,42368
2017-06-30T11:57:54.833Z,43776
2017-06-30T11:59:05.374Z,44384
2017-06-30T12:00:15.659Z,43232
2017-06-30T12:01:25.947Z,42464
2017-06-30T12:02:36.275Z,44000
2017-06-30T12:03:45.932Z,42624
2017-06-30T12:04:56.472Z,37056
2017-06-30T12:06:06.766Z,35808
2017-06-30T12:07:17.071Z,32960
2017-06-30T12:08:27.330Z,31360
2017-06-30T12:09:37.579Z,36672
2017-06-30T12:10:47.811Z,36512
2017-06-30T12:11:57.789Z,39040
2017-06-30T12:13:07.759Z,40544
2017-06-30T12:14:17.710Z,34400
2017-06-30T12:15:27.674Z,35616
2017-06-30T12:16:38.205Z,41568
2017-06-30T12:17:47.854Z,41184
2017-06-30T12:18:58.099Z,37440
2017-06-30T12:20:08.376Z,34112
2017-06-30T12:21:18.341Z,34016
2017-06-30T12:22:28.876Z,40192
2017-06-30T12:23:39.139Z,35232
2017-06-30T12:24:49.093Z,28512
2017-06-30T12:25:59.383Z,26144
2017-06-30T12:27:09.351Z,22080
2017-06-30T12:28:19.580Z,25216
2017-06-30T12:29:29.842Z,31392
2017-06-30T12:30:40.114Z,30816
2017-06-30T12:31:50.413Z,33248
2017-06-30T12:33:00.393Z,31488
2017-06-30T12:34:11.029Z,27456
2017-06-30T12:35:21.313Z,26240
2017-06-30T12:36:31.568Z,29504
2017-06-30T12:37:41.513Z,34752
2017-06-30T12:38:51.796Z,42880
2017-06-30T12:40:02.308Z,39200
2017-06-30T12:41:12.329Z,42048
2017-06-30T12:42:22.297Z,36128
2017-06-30T12:43:32.552Z,39104
2017-06-30T12:44:42.857Z,42336
2017-06-30T12:45:53.070Z,36864
2017-06-30T12:47:03.063Z,37568
2017-06-30T12:48:13.325Z,39072
2017-06-30T12:49:23.597Z,40288
2017-06-30T12:50:33.540Z,53088
2017-06-30T12:51:44.067Z,53472
2017-06-30T12:52:54.345Z,52992
2017-06-30T12:54:04.653Z,52160
2017-06-30T12:55:14.622Z,51232
2017-06-30T12:56:24.932Z,51392
2017-06-30T12:57:35.448Z,50080
2017-06-30T12:58:45.738Z,48256
2017-06-30T12:59:56.017Z,48416
2017-06-30T13:01:06.284Z,37696
2017-06-30T13:02:16.239Z,45472
2017-06-30T13:03:26.760Z,41280
2017-06-30T13:04:37.040Z,49760
2017-06-30T13:05:47.002Z,52384
2017-06-30T13:06:57.269Z,49792
2017-06-30T13:08:07.558Z,47232
2017-06-30T13:09:18.074Z,44096
2017-06-30T13:10:28.050Z,36608
2017-06-30T13:11:38.318Z,36256
2017-06-30T13:12:48.589Z,35648
2017-06-30T13:13:58.616Z,32928
2017-06-30T13:15:09.143Z,34368
2017-06-30T13:16:19.457Z,38464
2017-06-30T13:17:29.718Z,49536
2017-06-30T13:18:39.987Z,60768
2017-06-30T13:19:50.324Z,56064
2017-06-30T13:21:00.839Z,48576
2017-06-30T13:22:11.098Z,46880
2017-06-30T13:23:21.356Z,45568
2017-06-30T13:24:31.548Z,49760
2017-06-30T13:25:41.513Z,54240
2017-06-30T13:26:52.315Z,62368
2017-06-30T13:28:02.609Z,49632
2017-06-30T13:29:12.577Z,41472
2017-06-30T13:30:22.547Z,43104
2017-06-30T13:31:32.823Z,38624
2017-06-30T13:32:43.355Z,29120
2017-06-30T13:33:53.635Z,19904
2017-06-30T13:35:03.602Z,15348
2017-06-30T13:36:12.966Z,14268
2017-06-30T13:37:23.250Z,15140
2017-06-30T13:38:33.495Z,15248
2017-06-30T13:39:43.764Z,12852
2017-06-30T13:40:54.039Z,9656
2017-06-30T13:42:04.322Z,7396
2017-06-30T13:43:14.600Z,5612
2017-06-30T13:44:25.124Z,4848
2017-06-30T13:45:35.406Z,4384
2017-06-30T13:46:45.370Z,4344
2017-06-30T13:47:55.321Z,5412
2017-06-30T13:49:05.284Z,7920
2017-06-30T13:50:15.785Z,10356
2017-06-30T13:51:25.754Z,11184
2017-06-30T13:52:36.025Z,14532
2017-06-30T13:53:46.284Z,18208
2017-06-30T13:54:56.547Z,21984
2017-06-30T13:56:06.779Z,20224
2017-06-30T13:57:17.055Z,20160
2017-06-30T13:58:27.328Z,22848
2017-06-30T13:59:36.938Z,31744
2017-06-30T14:00:46.897Z,27680
2017-06-30T14:01:57.118Z,29248
2017-06-30T14:03:07.084Z,22816
2017-06-30T14:04:17.084Z,22528
2017-06-30T14:05:27.349Z,21536
2017-06-30T14:06:37.611Z,19328
2017-06-30T14:07:47.819Z,16952
2017-06-30T14:08:58.087Z,14884
2017-06-30T14:10:07.750Z,13424
2017-06-30T14:11:18.009Z,12636
2017-06-30T14:12:28.278Z,11832
2017-06-30T14:13:38.794Z,11276
2017-06-30T14:14:49.062Z,10812
2017-06-30T14:15:59.029Z,10064
2017-06-30T14:17:09.303Z,9560
2017-06-30T14:18:19.572Z,8756
2017-06-30T14:19:30.099Z,7336
2017-06-30T14:20:40.380Z,6648
2017-06-30T14:21:50.662Z,5556
2017-06-30T14:23:00.939Z,5012
2017-06-30T14:24:10.591Z,3944
2017-06-30T14:25:21.159Z,3236
2017-06-30T14:26:31.429Z,2912
2017-06-30T14:27:41.066Z,2508
2017-06-30T14:28:51.324Z,2344
2017-06-30T14:30:01.306Z,2020
2017-06-30T14:31:11.838Z,1776
2017-06-30T14:32:21.488Z,1900
2017-06-30T14:33:31.752Z,2180
2017-06-30T14:34:42.030Z,2176
2017-06-30T14:35:51.979Z,1964
2017-06-30T14:37:02.178Z,2028
2017-06-30T14:38:12.449Z,2012
2017-06-30T14:39:22.727Z,1840
2017-06-30T14:40:32.709Z,1524
2017-06-30T14:41:42.971Z,1368
2017-06-30T14:42:53.507Z,2196
2017-06-30T14:44:03.464Z,3144
2017-06-30T14:45:13.740Z,3248
2017-06-30T14:46:23.727Z,3616
2017-06-30T14:47:33.699Z,3964
2017-06-30T14:48:43.585Z,3532
2017-06-30T14:49:53.539Z,3448
2017-06-30T14:51:03.811Z,3472
2017-06-30T14:52:14.082Z,3500
2017-06-30T14:53:24.333Z,2780
2017-06-30T14:54:34.912Z,2676
2017-06-30T14:55:45.176Z,2600
2017-06-30T14:56:55.142Z,2784
2017-06-30T14:58:05.392Z,2592
2017-06-30T14:59:15.339Z,2704
2017-06-30T15:00:25.870Z,3036
2017-06-30T15:01:36.120Z,2824
2017-06-30T15:02:46.081Z,3044
2017-06-30T15:03:56.553Z,3328
2017-06-30T15:05:06.817Z,3732
2017-06-30T15:06:17.334Z,4056
2017-06-30T15:07:27.603Z,4500
2017-06-30T15:08:37.586Z,4996
2017-06-30T15:09:47.234Z,5832
2017-06-30T15:10:56.573Z,6768
2017-06-30T15:12:07.216Z,8312
2017-06-30T15:13:17.500Z,10216
2017-06-30T15:14:27.453Z,12024
2017-06-30T15:15:37.420Z,13572
2017-06-30T15:16:47.411Z,15040
2017-06-30T15:17:57.613Z,16152
2017-06-30T15:19:07.873Z,17376
2017-06-30T15:20:18.135Z,18496
2017-06-30T15:21:28.411Z,19040
2017-06-30T15:22:38.700Z,19968
2017-06-30T15:23:49.232Z,21280
2017-06-30T15:24:59.201Z,22144
2017-06-30T15:26:08.528Z,22560
2017-06-30T15:27:18.478Z,22176
2017-06-30T15:28:28.747Z,21184
2017-06-30T15:29:39.260Z,22944
2017-06-30T15:30:49.525Z,25504
2017-06-30T15:31:59.813Z,27616
2017-06-30T15:33:10.075Z,29344
2017-06-30T15:34:20.346Z,30976
2017-06-30T15:35:30.860Z,32032
2017-06-30T15:36:40.810Z,32352
2017-06-30T15:37:51.085Z,31744
2017-06-30T15:39:01.054Z,31520
2017-06-30T15:40:11.031Z,31264
2017-06-30T15:41:21.564Z,32000
2017-06-30T15:42:31.827Z,33472
2017-06-30T15:43:42.084Z,35360
2017-06-30T15:44:52.039Z,35552
2017-06-30T15:46:01.675Z,34560
2017-06-30T15:47:11.577Z,33696
2017-06-30T15:48:21.526Z,33408
2017-06-30T15:49:31.786Z,30912
2017-06-30T15:50:42.058Z,30688
2017-06-30T15:51:52.019Z,28736
2017-06-30T15:53:02.246Z,27968
2017-06-30T15:54:12.508Z,24832
2017-06-30T15:55:22.791Z,20640
2017-06-30T15:56:33.069Z,16148
2017-06-30T15:57:43.029Z,14676
2017-06-30T15:58:53.228Z,18784
2017-06-30T16:00:02.870Z,22368
2017-06-30T16:01:13.140Z,25664
2017-06-30T16:02:23.418Z,26496
2017-06-30T16:03:33.695Z,24672
2017-06-30T16:04:43.958Z,22688
2017-06-30T16:05:54.241Z,19776
2017-06-30T16:07:04.509Z,17728
2017-06-30T16:08:14.775Z,15900
2017-06-30T16:09:24.719Z,13224
2017-06-30T16:10:35.305Z,10836
2017-06-30T16:11:45.572Z,8688
2017-06-30T16:12:55.844Z,8036
2017-06-30T16:14:05.823Z,8872
2017-06-30T16:15:15.785Z,11880
2017-06-30T16:16:26.340Z,11620
2017-06-30T16:17:36.613Z,9668
2017-06-30T16:18:46.890Z,6900
2017-06-30T16:19:57.167Z,4452
2017-06-30T16:21:07.462Z,3812
2017-06-30T16:22:17.701Z,4692
2017-06-30T16:23:27.990Z,6404
2017-06-30T16:24:38.293Z,6656
2017-06-30T16:25:48.566Z,6040
2017-06-30T16:26:58.838Z,4576
2017-06-30T16:28:09.355Z,4204
2017-06-30T16:29:19.650Z,4300
2017-06-30T16:30:29.601Z,4844
2017-06-30T16:31:39.863Z,6292
2017-06-30T16:32:49.821Z,9880
2017-06-30T16:34:00.023Z,14272
2017-06-30T16:35:09.977Z,16788
2017-06-30T16:36:20.243Z,16292
2017-06-30T16:37:30.206Z,15628
2017-06-30T16:38:40.484Z,13288
2017-06-30T16:39:51.031Z,10956
2017-06-30T16:41:01.300Z,10100
2017-06-30T16:42:11.258Z,10516
2017-06-30T16:43:21.519Z,10820
2017-06-30T16:44:31.494Z,10712
2017-06-30T16:45:41.995Z,10272
2017-06-30T16:46:51.949Z,10372
2017-06-30T16:48:02.192Z,10932
2017-06-30T16:49:12.169Z,9528
2017-06-30T16:50:22.425Z,7888
2017-06-30T16:51:32.643Z,6980
2017-06-30T16:52:42.905Z,5780
2017-06-30T16:53:53.179Z,3920
2017-06-30T16:55:03.147Z,2216
2017-06-30T16:56:13.119Z,1252
2017-06-30T16:57:23.333Z,940
2017-06-30T16:58:33.300Z,708
2017-06-30T16:59:43.562Z,680
2017-06-30T17:00:53.826Z,728
2017-06-30T17:02:03.804Z,760
2017-06-30T17:03:14.538Z,632
2017-06-30T17:04:24.509Z,684
2017-06-30T17:05:34.475Z,1140
2017-06-30T17:06:44.761Z,1216
2017-06-30T17:07:55.028Z,684
2017-06-30T17:09:05.547Z,420
2017-06-30T17:10:15.814Z,744
2017-06-30T17:11:25.483Z,1300
2017-06-30T17:12:35.752Z,1416
2017-06-30T17:13:46.005Z,1120
2017-06-30T17:14:56.523Z,964
2017-06-30T17:16:06.511Z,992
2017-06-30T17:17:16.773Z,1068
2017-06-30T17:18:27.047Z,924
2017-06-30T17:19:36.996Z,556
2017-06-30T17:20:47.500Z,496
2017-06-30T17:21:57.781Z,560
2017-06-30T17:23:08.031Z,756
2017-06-30T17:24:17.683Z,912
2017-06-30T17:25:27.937Z,1128
2017-06-30T17:26:37.870Z,1264
2017-06-30T17:27:48.133Z,1696
2017-06-30T17:28:58.391Z,2348
2017-06-30T17:30:08.353Z,2700
2017-06-30T17:31:18.296Z,3240
2017-06-30T17:32:28.872Z,4696
2017-06-30T17:33:39.182Z,5880
2017-06-30T17:34:49.444Z,4828
2017-06-30T17:35:59.704Z,4000
2017-06-30T17:37:09.975Z,5404
2017-06-30T17:38:20.509Z,6316
2017-06-30T17:39:30.464Z,7184
2017-06-30T17:40:40.398Z,7800
2017-06-30T17:41:50.035Z,8116
2017-06-30T17:43:00.012Z,8220
2017-06-30T17:44:10.520Z,7872
2017-06-30T17:45:20.775Z,7080
2017-06-30T17:46:31.036Z,5752
2017-06-30T17:47:41.286Z,4332
2017-06-30T17:48:51.245Z,4864
2017-06-30T17:50:01.748Z,5988
2017-06-30T17:51:12.032Z,5844
2017-06-30T17:52:21.987Z,5712
2017-06-30T17:53:32.256Z,5472
2017-06-30T17:54:42.219Z,4916
2017-06-30T17:55:52.756Z,4608
2017-06-30T17:57:03.016Z,4912
2017-06-30T17:58:13.301Z,4472
2017-06-30T17:59:23.575Z,3868
2017-06-30T18:00:33.824Z,3900
2017-06-30T18:01:44.331Z,4340
2017-06-30T18:02:54.616Z,4192
2017-06-30T18:04:04.879Z,3988
2017-06-30T18:05:14.839Z,3696
2017-06-30T18:06:25.114Z,3208
2017-06-30T18:07:35.626Z,2708
2017-06-30T18:08:45.591Z,2956
2017-06-30T18:09:55.580Z,3164
2017-06-30T18:11:05.552Z,3112
2017-06-30T18:12:15.838Z,2844
2017-06-30T18:13:26.028Z,2668
2017-06-30T18:14:36.304Z,2692
2017-06-30T18:15:46.589Z,2644
2017-06-30T18:16:56.561Z,2564
2017-06-30T18:18:06.833Z,2596
2017-06-30T18:19:17.046Z,2532
2017-06-30T18:20:27.299Z,2436
2017-06-30T18:21:37.547Z,2444
2017-06-30T18:22:47.221Z,2496
2017-06-30T18:23:57.491Z,2640
2017-06-30T18:25:08.004Z,2668
2017-06-30T18:26:17.973Z,2484
2017-06-30T18:27:28.260Z,2280
2017-06-30T18:28:38.519Z,1968
2017-06-30T18:29:48.460Z,1516
2017-06-30T18:30:59.016Z,1276
2017-06-30T18:32:09.296Z,1120
2017-06-30T18:33:19.246Z,1008
2017-06-30T18:34:29.274Z,940
2017-06-30T18:35:39.230Z,836
2017-06-30T18:36:49.839Z,792
2017-06-30T18:38:00.096Z,768
2017-06-30T18:39:10.375Z,964
2017-06-30T18:40:20.644Z,1268
2017-06-30T18:41:30.921Z,1268
2017-06-30T18:42:41.148Z,1276
2017-06-30T18:43:51.118Z,1304
2017-06-30T18:45:01.073Z,1324
2017-06-30T18:46:11.373Z,1280
2017-06-30T18:47:21.346Z,952
2017-06-30T18:48:31.864Z,648
2017-06-30T18:49:42.135Z,356
2017-06-30T18:50:52.388Z,248
2017-06-30T18:52:02.675Z,284
2017-06-30T18:53:12.940Z,388
2017-06-30T18:54:23.446Z,456
2017-06-30T18:55:33.412Z,472
2017-06-30T18:56:43.374Z,388
2017-06-30T18:57:53.031Z,372
2017-06-30T18:59:03.283Z,408
2017-06-30T19:00:13.885Z,548
2017-06-30T19:01:23.846Z,744
2017-06-30T19:02:34.122Z,920
2017-06-30T19:03:44.077Z,856
2017-06-30T19:04:54.382Z,808
2017-06-30T19:06:04.582Z,808
2017-06-30T19:07:14.829Z,768
2017-06-30T19:08:24.782Z,716
2017-06-30T19:09:35.044Z,652
2017-06-30T19:10:45.308Z,628
2017-06-30T19:11:55.519Z,644
2017-06-30T19:13:05.475Z,668
2017-06-30T19:14:15.744Z,676
2017-06-30T19:15:25.080Z,656
2017-06-30T19:16:35.356Z,620
2017-06-30T19:17:45.243Z,572
2017-06-30T19:18:54.906Z,512
2017-06-30T19:20:05.187Z,440
2017-06-30T19:21:15.152Z,376
2017-06-30T19:22:25.111Z,316
2017-06-30T19:23:35.360Z,260
2017-06-30T19:24:45.328Z,232
2017-06-30T19:25:55.290Z,228
2017-06-30T19:27:05.552Z,220
2017-06-30T19:28:15.498Z,200
2017-06-30T19:29:25.713Z,176
2017-06-30T19:30:35.986Z,156
2017-06-30T19:31:46.281Z,148
2017-06-30T19:32:56.550Z,144
2017-06-30T19:34:06.523Z,128
2017-06-30T19:35:17.041Z,100
2017-06-30T19:36:27.317Z,92
2017-06-30T19:37:37.597Z,80
2017-06-30T19:38:47.571Z,72
2017-06-30T19:39:57.841Z,72
2017-06-30T19:41:08.373Z,68
2017-06-30T19:42:18.330Z,60
2017-06-30T19:43:28.294Z,56
2017-06-30T19:44:38.547Z,56
2017-06-30T19:45:48.507Z,52
2017-06-30T19:46:58.703Z,52
2017-06-30T19:48:08.973Z,52
2017-06-30T19:49:19.239Z,48
2017-06-30T19:50:29.504Z,44
2017-06-30T19:51:39.772Z,36
2017-06-30T19:52:50.302Z,32
2017-06-30T19:54:00.302Z,28
2017-06-30T19:55:10.290Z,24
2017-06-30T19:56:20.245Z,24
2017-06-30T19:57:30.504Z,20
2017-06-30T19:58:41.071Z,16
2017-06-30T19:59:51.336Z,16
2017-06-30T20:01:01.617Z,12
2017-06-30T20:02:11.576Z,8
2017-06-30T20:03:21.871Z,8
2017-06-30T20:04:32.400Z,8
2017-06-30T20:05:42.666Z,8
2017-06-30T20:06:52.606Z,4
2017-06-30T20:08:02.546Z,8
2017-06-30T20:09:12.815Z,4
2017-06-30T20:10:23.010Z,4
2017-06-30T20:11:32.975Z,4
2017-06-30T20:12:43.264Z,4
2017-06-30T20:13:53.536Z,4
2017-06-30T20:15:03.507Z,0
2017-06-30T20:16:14.047Z,0
2017-06-30T20:17:24.324Z,0
2017-06-30T20:18:34.306Z,0
2017-06-30T20:19:44.582Z,0
2017-06-30T20:20:54.840Z,0
2017-06-30T20:22:05.060Z,0
2017-06-30T20:23:15.329Z,0
2017-06-30T20:24:25.623Z,0
2017-06-30T20:25:35.894Z,0
2017-06-30T20:26:46.176Z,0
2017-06-30T20:27:56.700Z,0
2017-06-30T20:29:06.669Z,0
2017-06-30T20:30:16.672Z,0
2017-06-30T20:31:26.961Z,0
2017-06-30T20:32:37.242Z,0
2017-06-30T20:33:47.458Z,0
2017-06-30T20:34:57.414Z,0
2017-06-30T20:36:07.423Z,0
2017-06-30T20:37:17.697Z,0
2017-06-30T20:38:27.661Z,0